integrated web briefing

Basic information
Name Katowice-Pyrzowice Airport
ICAO EPKT
IATA KTW
Latitude N50° 28.28'
Longitude E19° 04.04'
Runways 09/27 | 3200m x 45m
Elevation 987.0ft

Arrivals
Callsign From

Departures
Callsign To

ATC Bookings
Callsign Time [UTC]

Pilot Briefing

Metar

EPKT 180730Z 27006KT 3000 -DZ BR OVC002 07/07 Q1024


Runways
Runway Course Dimensions Equipment Surface
09
085° 3200m x 45m PAPI 3° CONCRETE
27
265° 3200m x 45m ILS CAT II, PAPI 3° CONCRETE

NAV Aids
Name Type Frequency / Course
KAX VOR/DME 114.80
IKTO ILS CAT II 109.90 / 265°

Air Traffic Control
Callsign Name Frequency
EPKT_DEL Katowice Delivery 121.800 MHz
EPKT_TWR Katowice Tower 129.250 MHz
EPKK_APP Krakow Approach 121.070 MHz
EPKK_K_APP Krakow Approach 135.400 MHz
EPWW_S_CTR Warszawa Radar (main) 125.450 MHz